Aviation Digital Data Service (ADDS)

Output produced by METARs form (0917 UTC 01 November 2014)
found at http://www.aviationweather.gov/adds/metars/
 
METAR text: KCCU 010917Z AUTO 18010KT 150V220 CLR 03/M06 A3034 RMK AO2 PWINO
Conditions at: KCCU (RED CLIFF PASS , CO, US) observed 0917 UTC 01 November 2014
Temperature: 3.0°C (37°F)
Dewpoint: -6.0°C (21°F) [RH = 52%]
Pressure (altimeter): 30.34 inches Hg (1027.5 mb)
Winds: from the S (180 degrees) at 12 MPH (10 knots; 5.2 m/s)
Visibility: missing
Ceiling: at least 12,000 feet AGL
Clouds: sky clear below 12,000 feet AGL
Weather: automated observation with no human augmentation;
there may or may not be significant weather present at this time